METAR Data
IDs: Format: Raw Decoded Include TAF

Data at: 0812 UTC 01 Aug 2021

EGCN 010750Z 04006KT 010V070 4000 -RA BR SCT004 BKN009 13/12 Q1012